KGRD

Greenwood County Airport

Greenwood, South Carolina, USA
METAR KGRD 150256Z AUTO 00000KT 10SM CLR 23/21 A3007 RMK AO2 SLP173 T02280206 53015
Observed Flight Rules
Aug-15 @ 02:56 UTC (40 minutes ago) Visual Flight Rules
Visibility Clouds
10 miles
  • Clear skies
Temperatures Readings
Current 23°C / 73°F
Dewpoint 21°C / 70°F
Humidity 89%
Altimeter 30.07" Hg
Pressure 1017.3 hPa
Elevation 185
METAR KGRD 150256Z AUTO 00000KT 10SM CLR 23/21 A3007 RMK AO2 SLP173 T02280206 53015
Observed Flight Rules
Aug-15 @ 02:56 UTC
(40 minutes ago)
VFR
Clouds
  • Clear skies
Temperature Dewpoint
23°C / 73°F 21°C / 70°F
Humidity Altimeter Pressure
89% 30.07" Hg 1017.3 hPa